sensor_id;sensor_type;location;lat;lon;timestamp;temperature;humidity
24448;DHT22;13348;50.984;5.822;2023-07-31T00:01:01;16.20;99.90
24448;DHT22;13348;50.984;5.822;2023-07-31T00:03:28;16.30;99.90
24448;DHT22;13348;50.984;5.822;2023-07-31T00:05:55;16.20;99.90
24448;DHT22;13348;50.984;5.822;2023-07-31T00:08:22;16.20;99.90
24448;DHT22;13348;50.984;5.822;2023-07-31T00:10:51;16.20;99.90
24448;DHT22;13348;50.984;5.822;2023-07-31T00:13:19;16.20;99.90
24448;DHT22;13348;50.984;5.822;2023-07-31T00:15:46;16.20;99.90
24448;DHT22;13348;50.984;5.822;2023-07-31T00:18:14;16.20;99.90
24448;DHT22;13348;50.984;5.822;2023-07-31T00:20:41;16.20;99.90
24448;DHT22;13348;50.984;5.822;2023-07-31T00:23:08;16.30;99.90
24448;DHT22;13348;50.984;5.822;2023-07-31T00:25:35;16.20;99.90
24448;DHT22;13348;50.984;5.822;2023-07-31T00:28:02;16.20;99.90
24448;DHT22;13348;50.984;5.822;2023-07-31T00:30:31;16.20;99.90
24448;DHT22;13348;50.984;5.822;2023-07-31T00:32:58;16.30;99.90
24448;DHT22;13348;50.984;5.822;2023-07-31T00:35:25;16.20;99.90
24448;DHT22;13348;50.984;5.822;2023-07-31T00:37:52;16.20;99.90
24448;DHT22;13348;50.984;5.822;2023-07-31T00:40:19;16.20;99.90
24448;DHT22;13348;50.984;5.822;2023-07-31T00:42:46;16.20;99.90
24448;DHT22;13348;50.984;5.822;2023-07-31T00:45:13;16.20;99.90
24448;DHT22;13348;50.984;5.822;2023-07-31T00:47:42;16.10;99.90
24448;DHT22;13348;50.984;5.822;2023-07-31T00:50:09;16.20;99.90
24448;DHT22;13348;50.984;5.822;2023-07-31T00:52:36;16.20;99.90
24448;DHT22;13348;50.984;5.822;2023-07-31T00:55:03;16.20;99.90
24448;DHT22;13348;50.984;5.822;2023-07-31T00:57:30;16.20;99.90
24448;DHT22;13348;50.984;5.822;2023-07-31T00:59:58;16.20;99.90
24448;DHT22;13348;50.984;5.822;2023-07-31T01:02:25;16.20;99.90
24448;DHT22;13348;50.984;5.822;2023-07-31T01:04:53;16.20;99.90
24448;DHT22;13348;50.984;5.822;2023-07-31T01:07:22;16.20;99.90
24448;DHT22;13348;50.984;5.822;2023-07-31T01:09:53;16.30;99.90
24448;DHT22;13348;50.984;5.822;2023-07-31T01:12:21;16.30;99.90
24448;DHT22;13348;50.984;5.822;2023-07-31T01:15:01;16.30;99.90
24448;DHT22;13348;50.984;5.822;2023-07-31T01:17:28;16.30;99.90
24448;DHT22;13348;50.984;5.822;2023-07-31T01:19:59;16.40;99.90
24448;DHT22;13348;50.984;5.822;2023-07-31T01:22:43;16.40;99.90
24448;DHT22;13348;50.984;5.822;2023-07-31T01:25:16;16.40;99.90
24448;DHT22;13348;50.984;5.822;2023-07-31T01:27:49;16.50;99.90
24448;DHT22;13348;50.984;5.822;2023-07-31T01:30:20;16.50;99.90
24448;DHT22;13348;50.984;5.822;2023-07-31T01:32:48;16.50;99.90
24448;DHT22;13348;50.984;5.822;2023-07-31T01:35:16;16.50;99.90
24448;DHT22;13348;50.984;5.822;2023-07-31T01:37:43;16.60;99.90
24448;DHT22;13348;50.984;5.822;2023-07-31T01:40:10;16.60;99.90
24448;DHT22;13348;50.984;5.822;2023-07-31T01:42:37;16.70;99.90
24448;DHT22;13348;50.984;5.822;2023-07-31T01:45:06;16.70;99.90
24448;DHT22;13348;50.984;5.822;2023-07-31T01:47:33;16.70;99.90
24448;DHT22;13348;50.984;5.822;2023-07-31T01:50:00;16.60;99.90
24448;DHT22;13348;50.984;5.822;2023-07-31T01:52:27;16.70;99.90
24448;DHT22;13348;50.984;5.822;2023-07-31T01:54:55;16.70;99.90
24448;DHT22;13348;50.984;5.822;2023-07-31T01:57:22;16.80;99.90
24448;DHT22;13348;50.984;5.822;2023-07-31T01:59:49;16.70;99.90
24448;DHT22;13348;50.984;5.822;2023-07-31T02:02:17;16.70;99.90
24448;DHT22;13348;50.984;5.822;2023-07-31T02:04:44;16.80;99.90
24448;DHT22;13348;50.984;5.822;2023-07-31T02:07:11;16.70;99.90
24448;DHT22;13348;50.984;5.822;2023-07-31T02:09:38;16.70;99.90
24448;DHT22;13348;50.984;5.822;2023-07-31T02:12:05;16.70;99.90
24448;DHT22;13348;50.984;5.822;2023-07-31T02:14:33;16.70;99.90
24448;DHT22;13348;50.984;5.822;2023-07-31T02:17:00;16.70;99.90
24448;DHT22;13348;50.984;5.822;2023-07-31T02:19:29;16.80;99.90
24448;DHT22;13348;50.984;5.822;2023-07-31T02:21:56;16.80;99.90
24448;DHT22;13348;50.984;5.822;2023-07-31T02:24:23;16.80;99.90
24448;DHT22;13348;50.984;5.822;2023-07-31T02:26:50;16.70;99.90
24448;DHT22;13348;50.984;5.822;2023-07-31T02:29:16;16.80;99.90
24448;DHT22;13348;50.984;5.822;2023-07-31T02:31:43;16.80;99.90
24448;DHT22;13348;50.984;5.822;2023-07-31T02:34:10;16.80;99.90
24448;DHT22;13348;50.984;5.822;2023-07-31T02:36:39;16.80;99.90
24448;DHT22;13348;50.984;5.822;2023-07-31T02:39:05;16.80;99.90
24448;DHT22;13348;50.984;5.822;2023-07-31T02:41:32;16.80;99.90
24448;DHT22;13348;50.984;5.822;2023-07-31T02:43:59;16.80;99.90
24448;DHT22;13348;50.984;5.822;2023-07-31T02:46:26;16.80;99.90
24448;DHT22;13348;50.984;5.822;2023-07-31T02:48:53;16.70;99.90
24448;DHT22;13348;50.984;5.822;2023-07-31T02:51:20;16.70;99.90
24448;DHT22;13348;50.984;5.822;2023-07-31T02:53:49;16.70;99.90
24448;DHT22;13348;50.984;5.822;2023-07-31T02:56:16;16.70;99.90
24448;DHT22;13348;50.984;5.822;2023-07-31T02:58:43;16.70;99.90
24448;DHT22;13348;50.984;5.822;2023-07-31T03:01:10;16.70;99.90
24448;DHT22;13348;50.984;5.822;2023-07-31T03:03:37;16.80;99.90
24448;DHT22;13348;50.984;5.822;2023-07-31T03:06:04;16.70;99.90
24448;DHT22;13348;50.984;5.822;2023-07-31T03:08:30;16.80;99.90
24448;DHT22;13348;50.984;5.822;2023-07-31T03:10:59;16.80;99.90
24448;DHT22;13348;50.984;5.822;2023-07-31T03:13:26;16.80;99.90
24448;DHT22;13348;50.984;5.822;2023-07-31T03:15:53;16.70;99.90
24448;DHT22;13348;50.984;5.822;2023-07-31T03:18:19;16.80;99.90
24448;DHT22;13348;50.984;5.822;2023-07-31T03:20:46;16.70;99.90
24448;DHT22;13348;50.984;5.822;2023-07-31T03:23:13;16.80;99.90
24448;DHT22;13348;50.984;5.822;2023-07-31T03:25:41;16.80;99.90
24448;DHT22;13348;50.984;5.822;2023-07-31T03:28:10;16.90;99.90
24448;DHT22;13348;50.984;5.822;2023-07-31T03:30:37;16.90;99.90
24448;DHT22;13348;50.984;5.822;2023-07-31T03:33:04;16.90;99.90
24448;DHT22;13348;50.984;5.822;2023-07-31T03:35:31;16.90;99.90
24448;DHT22;13348;50.984;5.822;2023-07-31T03:37:58;16.90;99.90
24448;DHT22;13348;50.984;5.822;2023-07-31T03:40:25;16.90;99.90
24448;DHT22;13348;50.984;5.822;2023-07-31T03:42:51;17.00;99.90
24448;DHT22;13348;50.984;5.822;2023-07-31T03:45:20;17.00;99.90
24448;DHT22;13348;50.984;5.822;2023-07-31T03:47:47;17.00;99.90
24448;DHT22;13348;50.984;5.822;2023-07-31T03:50:14;17.00;99.90
24448;DHT22;13348;50.984;5.822;2023-07-31T03:52:41;17.00;99.90
24448;DHT22;13348;50.984;5.822;2023-07-31T03:55:08;17.00;99.90
24448;DHT22;13348;50.984;5.822;2023-07-31T03:57:35;17.00;99.90
24448;DHT22;13348;50.984;5.822;2023-07-31T04:00:02;17.00;99.90
24448;DHT22;13348;50.984;5.822;2023-07-31T04:02:30;17.00;99.90
24448;DHT22;13348;50.984;5.822;2023-07-31T04:04:57;17.00;99.90
24448;DHT22;13348;50.984;5.822;2023-07-31T04:07:24;17.10;99.90
24448;DHT22;13348;50.984;5.822;2023-07-31T04:09:51;17.10;99.90
24448;DHT22;13348;50.984;5.822;2023-07-31T04:12:18;17.10;99.90
24448;DHT22;13348;50.984;5.822;2023-07-31T04:14:45;17.10;99.90
24448;DHT22;13348;50.984;5.822;2023-07-31T04:17:12;17.10;99.90
24448;DHT22;13348;50.984;5.822;2023-07-31T04:19:41;17.10;99.90
24448;DHT22;13348;50.984;5.822;2023-07-31T04:22:08;17.10;99.90
24448;DHT22;13348;50.984;5.822;2023-07-31T04:24:34;17.10;99.90
24448;DHT22;13348;50.984;5.822;2023-07-31T04:27:01;17.20;99.90
24448;DHT22;13348;50.984;5.822;2023-07-31T04:29:29;17.10;99.90
24448;DHT22;13348;50.984;5.822;2023-07-31T04:31:56;17.10;99.90
24448;DHT22;13348;50.984;5.822;2023-07-31T04:34:23;17.20;99.90
24448;DHT22;13348;50.984;5.822;2023-07-31T04:36:51;17.20;99.90
24448;DHT22;13348;50.984;5.822;2023-07-31T04:39:18;17.10;99.90
24448;DHT22;13348;50.984;5.822;2023-07-31T04:41:45;17.20;99.90
24448;DHT22;13348;50.984;5.822;2023-07-31T04:44:12;17.20;99.90
24448;DHT22;13348;50.984;5.822;2023-07-31T04:46:39;17.20;99.90
24448;DHT22;13348;50.984;5.822;2023-07-31T04:49:06;17.20;99.90
24448;DHT22;13348;50.984;5.822;2023-07-31T04:51:33;17.30;99.90
24448;DHT22;13348;50.984;5.822;2023-07-31T04:54:02;17.30;99.90
24448;DHT22;13348;50.984;5.822;2023-07-31T04:56:29;17.20;99.90
24448;DHT22;13348;50.984;5.822;2023-07-31T04:58:56;17.20;99.90
24448;DHT22;13348;50.984;5.822;2023-07-31T05:01:22;17.20;99.90
24448;DHT22;13348;50.984;5.822;2023-07-31T05:03:49;17.20;99.90
24448;DHT22;13348;50.984;5.822;2023-07-31T05:06:16;17.20;99.90
24448;DHT22;13348;50.984;5.822;2023-07-31T05:08:43;17.10;99.90
24448;DHT22;13348;50.984;5.822;2023-07-31T05:11:12;17.10;99.90
24448;DHT22;13348;50.984;5.822;2023-07-31T05:13:39;17.10;99.90
24448;DHT22;13348;50.984;5.822;2023-07-31T05:16:06;17.10;99.90
24448;DHT22;13348;50.984;5.822;2023-07-31T05:18:33;16.90;99.90
24448;DHT22;13348;50.984;5.822;2023-07-31T05:21:00;16.90;99.90
24448;DHT22;13348;50.984;5.822;2023-07-31T05:23:27;16.80;99.90
24448;DHT22;13348;50.984;5.822;2023-07-31T05:25:54;16.80;99.90
24448;DHT22;13348;50.984;5.822;2023-07-31T05:28:23;16.80;99.90
24448;DHT22;13348;50.984;5.822;2023-07-31T05:30:50;16.70;99.90
24448;DHT22;13348;50.984;5.822;2023-07-31T05:33:17;16.60;99.90
24448;DHT22;13348;50.984;5.822;2023-07-31T05:35:44;16.50;99.90
24448;DHT22;13348;50.984;5.822;2023-07-31T05:38:12;16.50;99.90
24448;DHT22;13348;50.984;5.822;2023-07-31T05:40:38;16.50;99.90
24448;DHT22;13348;50.984;5.822;2023-07-31T05:43:05;16.40;99.90
24448;DHT22;13348;50.984;5.822;2023-07-31T05:45:35;16.50;99.90
24448;DHT22;13348;50.984;5.822;2023-07-31T05:48:02;16.60;99.90
24448;DHT22;13348;50.984;5.822;2023-07-31T05:50:29;16.60;99.90
24448;DHT22;13348;50.984;5.822;2023-07-31T05:52:56;16.60;99.90
24448;DHT22;13348;50.984;5.822;2023-07-31T05:55:23;16.60;99.90
24448;DHT22;13348;50.984;5.822;2023-07-31T05:57:52;16.60;99.90
24448;DHT22;13348;50.984;5.822;2023-07-31T06:00:19;16.60;99.90
24448;DHT22;13348;50.984;5.822;2023-07-31T06:02:49;16.60;99.90
24448;DHT22;13348;50.984;5.822;2023-07-31T06:05:16;16.60;99.90
24448;DHT22;13348;50.984;5.822;2023-07-31T06:07:43;16.70;99.90
24448;DHT22;13348;50.984;5.822;2023-07-31T06:10:10;16.70;99.90
24448;DHT22;13348;50.984;5.822;2023-07-31T06:12:37;16.80;99.90
24448;DHT22;13348;50.984;5.822;2023-07-31T06:15:05;16.90;99.90
24448;DHT22;13348;50.984;5.822;2023-07-31T06:17:32;16.80;99.90
24448;DHT22;13348;50.984;5.822;2023-07-31T06:20:01;16.90;99.90
24448;DHT22;13348;50.984;5.822;2023-07-31T06:22:30;16.90;99.90
24448;DHT22;13348;50.984;5.822;2023-07-31T06:24:57;17.00;99.90
24448;DHT22;13348;50.984;5.822;2023-07-31T06:27:25;17.00;99.90
24448;DHT22;13348;50.984;5.822;2023-07-31T06:29:52;17.00;99.90
24448;DHT22;13348;50.984;5.822;2023-07-31T06:32:19;16.80;99.90
24448;DHT22;13348;50.984;5.822;2023-07-31T06:34:45;16.80;99.90
24448;DHT22;13348;50.984;5.822;2023-07-31T06:37:14;16.80;99.90
24448;DHT22;13348;50.984;5.822;2023-07-31T06:39:41;16.80;99.90
24448;DHT22;13348;50.984;5.822;2023-07-31T06:42:08;16.70;99.90
24448;DHT22;13348;50.984;5.822;2023-07-31T06:44:35;16.50;99.90
24448;DHT22;13348;50.984;5.822;2023-07-31T06:47:02;16.40;99.90
24448;DHT22;13348;50.984;5.822;2023-07-31T06:49:29;16.30;99.90
24448;DHT22;13348;50.984;5.822;2023-07-31T06:51:55;16.30;99.90
24448;DHT22;13348;50.984;5.822;2023-07-31T06:54:24;16.20;99.90
24448;DHT22;13348;50.984;5.822;2023-07-31T06:56:51;16.20;99.90
24448;DHT22;13348;50.984;5.822;2023-07-31T06:59:18;16.10;99.90
24448;DHT22;13348;50.984;5.822;2023-07-31T07:01:45;16.10;99.90
24448;DHT22;13348;50.984;5.822;2023-07-31T07:04:12;16.20;99.90
24448;DHT22;13348;50.984;5.822;2023-07-31T07:06:39;16.30;99.90
24448;DHT22;13348;50.984;5.822;2023-07-31T07:09:06;16.30;99.90
24448;DHT22;13348;50.984;5.822;2023-07-31T07:11:34;16.30;99.90
24448;DHT22;13348;50.984;5.822;2023-07-31T07:14:03;16.20;99.90
24448;DHT22;13348;50.984;5.822;2023-07-31T07:16:30;16.20;99.90
24448;DHT22;13348;50.984;5.822;2023-07-31T07:18:57;16.20;99.90
24448;DHT22;13348;50.984;5.822;2023-07-31T07:21:24;16.30;99.90
24448;DHT22;13348;50.984;5.822;2023-07-31T07:23:51;16.30;99.90
24448;DHT22;13348;50.984;5.822;2023-07-31T07:26:18;16.30;99.90
24448;DHT22;13348;50.984;5.822;2023-07-31T07:28:46;16.20;99.90
24448;DHT22;13348;50.984;5.822;2023-07-31T07:31:13;16.10;99.90
24448;DHT22;13348;50.984;5.822;2023-07-31T07:33:41;16.20;99.90
24448;DHT22;13348;50.984;5.822;2023-07-31T07:36:08;16.20;99.90
24448;DHT22;13348;50.984;5.822;2023-07-31T07:38:35;16.30;99.90
24448;DHT22;13348;50.984;5.822;2023-07-31T07:41:04;16.50;99.90
24448;DHT22;13348;50.984;5.822;2023-07-31T07:43:31;16.70;99.90
24448;DHT22;13348;50.984;5.822;2023-07-31T07:46:00;16.70;99.90
24448;DHT22;13348;50.984;5.822;2023-07-31T07:48:27;16.60;99.90
24448;DHT22;13348;50.984;5.822;2023-07-31T07:50:54;16.70;99.90
24448;DHT22;13348;50.984;5.822;2023-07-31T07:53:21;16.90;99.90
24448;DHT22;13348;50.984;5.822;2023-07-31T07:55:48;17.00;99.90
24448;DHT22;13348;50.984;5.822;2023-07-31T07:58:15;17.00;99.90
24448;DHT22;13348;50.984;5.822;2023-07-31T08:00:42;17.00;99.90
24448;DHT22;13348;50.984;5.822;2023-07-31T08:03:16;17.00;99.90
24448;DHT22;13348;50.984;5.822;2023-07-31T08:05:43;17.00;99.90
24448;DHT22;13348;50.984;5.822;2023-07-31T08:08:13;17.00;99.90
24448;DHT22;13348;50.984;5.822;2023-07-31T08:10:41;16.90;99.90
24448;DHT22;13348;50.984;5.822;2023-07-31T08:13:08;16.70;99.90
24448;DHT22;13348;50.984;5.822;2023-07-31T08:15:34;16.70;99.90
24448;DHT22;13348;50.984;5.822;2023-07-31T08:18:01;16.80;99.90
24448;DHT22;13348;50.984;5.822;2023-07-31T08:20:30;16.70;99.90
24448;DHT22;13348;50.984;5.822;2023-07-31T08:22:57;16.80;99.90
24448;DHT22;13348;50.984;5.822;2023-07-31T08:25:23;16.90;99.90
24448;DHT22;13348;50.984;5.822;2023-07-31T08:27:50;17.00;99.90
24448;DHT22;13348;50.984;5.822;2023-07-31T08:30:18;17.10;99.90
24448;DHT22;13348;50.984;5.822;2023-07-31T08:32:45;17.00;99.90
24448;DHT22;13348;50.984;5.822;2023-07-31T08:35:12;17.00;99.90
24448;DHT22;13348;50.984;5.822;2023-07-31T08:37:40;17.00;99.90
24448;DHT22;13348;50.984;5.822;2023-07-31T08:40:07;16.90;99.90
24448;DHT22;13348;50.984;5.822;2023-07-31T08:42:42;17.00;99.90
24448;DHT22;13348;50.984;5.822;2023-07-31T08:45:09;17.20;99.90
24448;DHT22;13348;50.984;5.822;2023-07-31T08:47:38;17.20;99.90
24448;DHT22;13348;50.984;5.822;2023-07-31T08:50:05;17.00;99.90
24448;DHT22;13348;50.984;5.822;2023-07-31T08:52:33;17.10;99.90
24448;DHT22;13348;50.984;5.822;2023-07-31T08:55:01;16.90;99.90
24448;DHT22;13348;50.984;5.822;2023-07-31T08:57:29;16.90;99.90
24448;DHT22;13348;50.984;5.822;2023-07-31T08:59:56;16.90;99.90
24448;DHT22;13348;50.984;5.822;2023-07-31T09:02:24;16.90;99.90
24448;DHT22;13348;50.984;5.822;2023-07-31T09:04:54;17.00;99.90
24448;DHT22;13348;50.984;5.822;2023-07-31T09:07:21;17.00;99.90
24448;DHT22;13348;50.984;5.822;2023-07-31T09:09:48;16.90;99.90
24448;DHT22;13348;50.984;5.822;2023-07-31T09:12:17;17.00;99.90
24448;DHT22;13348;50.984;5.822;2023-07-31T09:14:44;16.90;99.90
24448;DHT22;13348;50.984;5.822;2023-07-31T09:17:12;16.90;99.90
24448;DHT22;13348;50.984;5.822;2023-07-31T09:19:39;17.00;99.90
24448;DHT22;13348;50.984;5.822;2023-07-31T09:22:06;17.10;99.90
24448;DHT22;13348;50.984;5.822;2023-07-31T09:24:33;17.10;99.90
24448;DHT22;13348;50.984;5.822;2023-07-31T09:27:01;16.90;99.90
24448;DHT22;13348;50.984;5.822;2023-07-31T09:29:29;16.80;99.90
24448;DHT22;13348;50.984;5.822;2023-07-31T09:31:56;16.70;99.90
24448;DHT22;13348;50.984;5.822;2023-07-31T09:34:28;16.80;99.90
24448;DHT22;13348;50.984;5.822;2023-07-31T09:36:57;17.00;99.90
24448;DHT22;13348;50.984;5.822;2023-07-31T09:39:24;17.10;99.90
24448;DHT22;13348;50.984;5.822;2023-07-31T09:41:53;17.20;99.90
24448;DHT22;13348;50.984;5.822;2023-07-31T09:44:21;17.20;99.90
24448;DHT22;13348;50.984;5.822;2023-07-31T09:46:49;17.30;99.90
24448;DHT22;13348;50.984;5.822;2023-07-31T09:49:16;17.40;99.90
24448;DHT22;13348;50.984;5.822;2023-07-31T09:51:43;17.40;99.90
24448;DHT22;13348;50.984;5.822;2023-07-31T09:54:10;17.40;99.90
24448;DHT22;13348;50.984;5.822;2023-07-31T09:56:40;17.60;99.90
24448;DHT22;13348;50.984;5.822;2023-07-31T09:59:08;17.50;99.90
24448;DHT22;13348;50.984;5.822;2023-07-31T10:01:37;17.40;99.90
24448;DHT22;13348;50.984;5.822;2023-07-31T10:04:06;17.50;99.90
24448;DHT22;13348;50.984;5.822;2023-07-31T10:06:34;17.50;99.90
24448;DHT22;13348;50.984;5.822;2023-07-31T10:09:02;17.70;99.90
24448;DHT22;13348;50.984;5.822;2023-07-31T10:11:29;17.70;99.90
24448;DHT22;13348;50.984;5.822;2023-07-31T10:13:57;17.80;99.90
24448;DHT22;13348;50.984;5.822;2023-07-31T10:16:24;17.90;99.90
24448;DHT22;13348;50.984;5.822;2023-07-31T10:18:51;17.90;99.90
24448;DHT22;13348;50.984;5.822;2023-07-31T10:21:19;17.90;99.90
24448;DHT22;13348;50.984;5.822;2023-07-31T10:23:46;18.00;99.90
24448;DHT22;13348;50.984;5.822;2023-07-31T10:26:16;18.10;99.90
24448;DHT22;13348;50.984;5.822;2023-07-31T10:28:43;18.40;99.90
24448;DHT22;13348;50.984;5.822;2023-07-31T10:31:11;18.80;99.90
24448;DHT22;13348;50.984;5.822;2023-07-31T10:33:39;19.00;99.90
24448;DHT22;13348;50.984;5.822;2023-07-31T10:36:17;18.80;99.90
24448;DHT22;13348;50.984;5.822;2023-07-31T10:38:45;18.60;99.90
24448;DHT22;13348;50.984;5.822;2023-07-31T10:41:12;18.50;99.90
24448;DHT22;13348;50.984;5.822;2023-07-31T10:43:39;18.70;99.90
24448;DHT22;13348;50.984;5.822;2023-07-31T10:46:06;18.80;99.90
24448;DHT22;13348;50.984;5.822;2023-07-31T10:48:34;18.80;99.90
24448;DHT22;13348;50.984;5.822;2023-07-31T10:51:06;18.90;99.90
24448;DHT22;13348;50.984;5.822;2023-07-31T10:53:33;19.20;99.90
24448;DHT22;13348;50.984;5.822;2023-07-31T10:56:01;19.10;99.90
24448;DHT22;13348;50.984;5.822;2023-07-31T10:58:29;19.10;99.90
24448;DHT22;13348;50.984;5.822;2023-07-31T11:00:58;19.10;99.90
24448;DHT22;13348;50.984;5.822;2023-07-31T11:03:25;19.10;99.90
24448;DHT22;13348;50.984;5.822;2023-07-31T11:05:53;19.30;99.90
24448;DHT22;13348;50.984;5.822;2023-07-31T11:08:21;19.00;99.90
24448;DHT22;13348;50.984;5.822;2023-07-31T11:10:49;18.80;99.90
24448;DHT22;13348;50.984;5.822;2023-07-31T11:13:18;18.50;99.90
24448;DHT22;13348;50.984;5.822;2023-07-31T11:15:45;18.60;99.90
24448;DHT22;13348;50.984;5.822;2023-07-31T11:18:11;18.60;99.90
24448;DHT22;13348;50.984;5.822;2023-07-31T11:20:38;18.40;99.90
24448;DHT22;13348;50.984;5.822;2023-07-31T11:23:07;18.00;99.90
24448;DHT22;13348;50.984;5.822;2023-07-31T11:25:34;17.80;99.90
24448;DHT22;13348;50.984;5.822;2023-07-31T11:28:05;17.70;99.90
24448;DHT22;13348;50.984;5.822;2023-07-31T11:30:33;17.70;99.90
24448;DHT22;13348;50.984;5.822;2023-07-31T11:33:01;17.80;99.90
24448;DHT22;13348;50.984;5.822;2023-07-31T11:35:30;17.90;99.90
24448;DHT22;13348;50.984;5.822;2023-07-31T11:37:57;17.80;99.90
24448;DHT22;13348;50.984;5.822;2023-07-31T11:40:24;17.80;99.90
24448;DHT22;13348;50.984;5.822;2023-07-31T11:42:57;17.90;99.90
24448;DHT22;13348;50.984;5.822;2023-07-31T11:45:25;17.80;99.90
24448;DHT22;13348;50.984;5.822;2023-07-31T11:47:55;17.80;99.90
24448;DHT22;13348;50.984;5.822;2023-07-31T11:50:22;17.70;99.90
24448;DHT22;13348;50.984;5.822;2023-07-31T11:52:53;17.70;99.90
24448;DHT22;13348;50.984;5.822;2023-07-31T11:55:22;18.00;99.90
24448;DHT22;13348;50.984;5.822;2023-07-31T11:57:49;18.40;99.90
24448;DHT22;13348;50.984;5.822;2023-07-31T12:00:17;18.80;99.90
24448;DHT22;13348;50.984;5.822;2023-07-31T12:02:44;18.80;99.90
24448;DHT22;13348;50.984;5.822;2023-07-31T12:05:13;19.10;99.90
24448;DHT22;13348;50.984;5.822;2023-07-31T12:07:46;19.10;99.90
24448;DHT22;13348;50.984;5.822;2023-07-31T12:10:26;19.10;99.90
24448;DHT22;13348;50.984;5.822;2023-07-31T12:13:00;18.80;99.90
24448;DHT22;13348;50.984;5.822;2023-07-31T12:15:34;18.70;99.90
24448;DHT22;13348;50.984;5.822;2023-07-31T12:18:03;18.70;99.90
24448;DHT22;13348;50.984;5.822;2023-07-31T12:20:32;18.60;99.90
24448;DHT22;13348;50.984;5.822;2023-07-31T12:22:59;18.70;99.90
24448;DHT22;13348;50.984;5.822;2023-07-31T12:25:32;18.80;99.90
24448;DHT22;13348;50.984;5.822;2023-07-31T12:28:05;18.80;99.90
24448;DHT22;13348;50.984;5.822;2023-07-31T12:30:37;18.90;99.90
24448;DHT22;13348;50.984;5.822;2023-07-31T12:33:04;19.10;99.90
24448;DHT22;13348;50.984;5.822;2023-07-31T12:35:37;19.30;99.90
24448;DHT22;13348;50.984;5.822;2023-07-31T12:38:04;19.50;99.90
24448;DHT22;13348;50.984;5.822;2023-07-31T12:40:31;19.60;99.90
24448;DHT22;13348;50.984;5.822;2023-07-31T12:42:58;19.70;99.90
24448;DHT22;13348;50.984;5.822;2023-07-31T12:45:27;19.80;99.90
24448;DHT22;13348;50.984;5.822;2023-07-31T12:47:54;19.90;99.90
24448;DHT22;13348;50.984;5.822;2023-07-31T12:50:21;19.80;99.90
24448;DHT22;13348;50.984;5.822;2023-07-31T12:52:50;19.80;99.90
24448;DHT22;13348;50.984;5.822;2023-07-31T12:55:17;20.10;99.90
24448;DHT22;13348;50.984;5.822;2023-07-31T12:57:44;20.30;99.90
24448;DHT22;13348;50.984;5.822;2023-07-31T13:00:12;20.80;99.90
24448;DHT22;13348;50.984;5.822;2023-07-31T13:02:39;21.10;99.90
24448;DHT22;13348;50.984;5.822;2023-07-31T13:05:06;21.40;99.90
24448;DHT22;13348;50.984;5.822;2023-07-31T13:07:33;21.50;99.90
24448;DHT22;13348;50.984;5.822;2023-07-31T13:10:02;22.30;99.90
24448;DHT22;13348;50.984;5.822;2023-07-31T13:12:29;22.50;99.90
24448;DHT22;13348;50.984;5.822;2023-07-31T13:14:56;22.40;99.90
24448;DHT22;13348;50.984;5.822;2023-07-31T13:17:23;22.00;99.90
24448;DHT22;13348;50.984;5.822;2023-07-31T13:19:50;21.30;99.90
24448;DHT22;13348;50.984;5.822;2023-07-31T13:22:17;20.90;99.90
24448;DHT22;13348;50.984;5.822;2023-07-31T13:24:44;20.50;99.90
24448;DHT22;13348;50.984;5.822;2023-07-31T13:27:12;20.20;99.90
24448;DHT22;13348;50.984;5.822;2023-07-31T13:29:39;20.10;99.90
24448;DHT22;13348;50.984;5.822;2023-07-31T13:32:06;20.00;99.90
24448;DHT22;13348;50.984;5.822;2023-07-31T13:34:33;19.90;99.90
24448;DHT22;13348;50.984;5.822;2023-07-31T13:37:00;20.00;99.90
24448;DHT22;13348;50.984;5.822;2023-07-31T13:39:27;20.00;99.90
24448;DHT22;13348;50.984;5.822;2023-07-31T13:41:54;20.00;99.90
24448;DHT22;13348;50.984;5.822;2023-07-31T13:44:23;19.80;99.90
24448;DHT22;13348;50.984;5.822;2023-07-31T13:46:50;19.80;99.90
24448;DHT22;13348;50.984;5.822;2023-07-31T13:49:17;19.80;99.90
24448;DHT22;13348;50.984;5.822;2023-07-31T13:51:45;19.90;99.90
24448;DHT22;13348;50.984;5.822;2023-07-31T13:54:11;19.80;99.90
24448;DHT22;13348;50.984;5.822;2023-07-31T13:56:40;19.80;99.90
24448;DHT22;13348;50.984;5.822;2023-07-31T13:59:07;19.90;99.90
24448;DHT22;13348;50.984;5.822;2023-07-31T14:01:36;19.80;99.90
24448;DHT22;13348;50.984;5.822;2023-07-31T14:04:03;20.10;99.90
24448;DHT22;13348;50.984;5.822;2023-07-31T14:06:30;20.40;99.90
24448;DHT22;13348;50.984;5.822;2023-07-31T14:08:57;20.70;99.90
24448;DHT22;13348;50.984;5.822;2023-07-31T14:11:24;20.90;99.90
24448;DHT22;13348;50.984;5.822;2023-07-31T14:13:51;20.80;99.90
24448;DHT22;13348;50.984;5.822;2023-07-31T14:16:18;20.80;99.90
24448;DHT22;13348;50.984;5.822;2023-07-31T14:18:46;20.80;99.90
24448;DHT22;13348;50.984;5.822;2023-07-31T14:21:13;20.70;99.90
24448;DHT22;13348;50.984;5.822;2023-07-31T14:23:41;20.50;99.90
24448;DHT22;13348;50.984;5.822;2023-07-31T14:26:08;20.40;99.90
24448;DHT22;13348;50.984;5.822;2023-07-31T14:28:35;20.20;99.90
24448;DHT22;13348;50.984;5.822;2023-07-31T14:31:02;20.10;99.90
24448;DHT22;13348;50.984;5.822;2023-07-31T14:33:29;20.00;99.90
24448;DHT22;13348;50.984;5.822;2023-07-31T14:35:58;19.90;99.90
24448;DHT22;13348;50.984;5.822;2023-07-31T14:38:25;19.90;99.90
24448;DHT22;13348;50.984;5.822;2023-07-31T14:40:52;19.70;99.90
24448;DHT22;13348;50.984;5.822;2023-07-31T14:43:19;19.70;99.90
24448;DHT22;13348;50.984;5.822;2023-07-31T14:45:46;19.70;99.90
24448;DHT22;13348;50.984;5.822;2023-07-31T14:48:13;19.70;99.90
24448;DHT22;13348;50.984;5.822;2023-07-31T14:50:40;19.70;99.90
24448;DHT22;13348;50.984;5.822;2023-07-31T14:53:08;19.70;99.90
24448;DHT22;13348;50.984;5.822;2023-07-31T14:55:35;19.70;99.90
24448;DHT22;13348;50.984;5.822;2023-07-31T14:58:02;19.60;99.90
24448;DHT22;13348;50.984;5.822;2023-07-31T15:00:29;19.40;99.90
24448;DHT22;13348;50.984;5.822;2023-07-31T15:02:56;19.10;99.90
24448;DHT22;13348;50.984;5.822;2023-07-31T15:05:23;18.90;99.90
24448;DHT22;13348;50.984;5.822;2023-07-31T15:07:50;18.70;99.90
24448;DHT22;13348;50.984;5.822;2023-07-31T15:10:19;18.60;99.90
24448;DHT22;13348;50.984;5.822;2023-07-31T15:12:46;18.50;99.90
24448;DHT22;13348;50.984;5.822;2023-07-31T15:15:13;18.50;99.90
24448;DHT22;13348;50.984;5.822;2023-07-31T15:17:40;18.30;99.90
24448;DHT22;13348;50.984;5.822;2023-07-31T15:20:09;18.30;99.90
24448;DHT22;13348;50.984;5.822;2023-07-31T15:22:36;18.30;99.90
24448;DHT22;13348;50.984;5.822;2023-07-31T15:25:03;18.30;99.90
24448;DHT22;13348;50.984;5.822;2023-07-31T15:27:32;18.30;99.90
24448;DHT22;13348;50.984;5.822;2023-07-31T15:29:58;18.20;99.90
24448;DHT22;13348;50.984;5.822;2023-07-31T15:32:25;18.20;99.90